Capitol Logistics 207


KRFD
Chicago/Rockford International Airport
Rockford, Illinois, US
KMIA
Miami International Airport
Miami, Florida, US

Activity Log

Date Flight Route Aircraft Duration
05/12/2020 CPX207 JERKY JOT TTH GQO AMG OMN MLB ANNEY4 B763 2h 48m
01/13/2020 CPX207 BVT J89 ATL J45 OMN HILEY7 B763 2h 56m
12/31/2019 CPX451 OBK J89 IIU J99 IRQ J53 ORL V159 TRV B738 3h 00m
12/30/2019 CPX207 BVT J89 ATL J45 OMN HILEY7 B763 3h 24m
11/28/2019 CPX451 BVT J89 ATL J45 OMN HILEY7 B738 2h 47m
07/06/2019 CPX207 BVT J89 ATL J45 OMN HILEY7 B763 3h 10m
05/10/2019 CPX207 BVT J89 ATL J45 OMN HILEY7 B763 2h 50m
12/08/2018 CPX351 JOT LVT TAY SSCOT5 B752 2h 46m
11/29/2018 CPX351 JOT LVT TAY SSCOT4 B752 2h 52m

Route Details

Aircraft Information
Primary: Boeing 767-300BDSF
Backup: Not Available
Route Data
Distance: 1160nm
Sched. Duration: 2h 50m
Avg. Duration: 2h 70m (+21m)
Times Flown: 9
Recm'd Route: BVT J89 ATL J45 OMN HILEY7
Planned Altitude: 36,000ft
Origin Wx: KRFD 312154Z 18016G24KT 10SM BKN110 15/03 A2990 RMK AO2 PK WND 17031/2109 SLP129 T01500028
Dest. Wx: KMIA 312235Z 05006KT 10SM -RA SCT019CB SCT028 SCT070 BKN250 26/24 A3005 RMK AO2 LTG DSNT NW-E RAB04 CB NE-E AND SW-W MOV W CB DSNT NW MOV W P0021 T02610244 $
Notes:

Financial History
Total Freight: 628,578lbs
Average Load: 69,842lbs/flt
Fuel Used: 446,926lbs
Avg. Fuel Used: 49,658lbs/flt
Fuel Expense: $326,849
Avg. Fuel Expense: $36,317
Avg. Fuel Cost: $0.72/lbs
Total Gross Income: $872,131
Pilot Pay: $1,041
Total Expenses: $94,658
Total Revenue: $446,016
Average Revenue: $96,903.40